sensor_id;sensor_type;location;lat;lon;timestamp;pressure;altitude;pressure_sealevel;temperature;humidity
64610;BME280;51019;46.090;6.350;2023-03-03T00:01:30;96657.22;;;-2.86;100.00
64610;BME280;51019;46.090;6.350;2023-03-03T00:03:58;96670.88;;;-2.85;100.00
64610;BME280;51019;46.090;6.350;2023-03-03T00:06:29;96681.03;;;-2.82;100.00
64610;BME280;51019;46.090;6.350;2023-03-03T00:08:57;96682.91;;;-2.87;100.00
64610;BME280;51019;46.090;6.350;2023-03-03T00:11:27;96654.94;;;-2.94;100.00
64610;BME280;51019;46.090;6.350;2023-03-03T00:13:56;96683.16;;;-2.94;100.00
64610;BME280;51019;46.090;6.350;2023-03-03T00:16:25;96666.25;;;-2.99;100.00
64610;BME280;51019;46.090;6.350;2023-03-03T00:18:54;96681.34;;;-2.92;100.00
64610;BME280;51019;46.090;6.350;2023-03-03T00:21:30;96692.44;;;-2.91;100.00
64610;BME280;51019;46.090;6.350;2023-03-03T00:24:14;96688.16;;;-2.90;100.00
64610;BME280;51019;46.090;6.350;2023-03-03T00:26:46;96670.00;;;-3.08;100.00
64610;BME280;51019;46.090;6.350;2023-03-03T00:29:37;96690.84;;;-2.94;100.00
64610;BME280;51019;46.090;6.350;2023-03-03T00:32:20;96687.78;;;-3.03;100.00
64610;BME280;51019;46.090;6.350;2023-03-03T00:34:51;96692.25;;;-3.08;100.00
64610;BME280;51019;46.090;6.350;2023-03-03T00:37:28;96680.25;;;-3.08;100.00
64610;BME280;51019;46.090;6.350;2023-03-03T00:40:13;96686.69;;;-3.19;100.00
64610;BME280;51019;46.090;6.350;2023-03-03T00:42:53;96695.91;;;-3.15;100.00
64610;BME280;51019;46.090;6.350;2023-03-03T00:45:27;96669.78;;;-3.25;100.00
64610;BME280;51019;46.090;6.350;2023-03-03T00:47:56;96683.03;;;-3.14;100.00
64610;BME280;51019;46.090;6.350;2023-03-03T00:50:28;96684.00;;;-3.16;100.00
64610;BME280;51019;46.090;6.350;2023-03-03T00:53:06;96683.88;;;-3.13;100.00
64610;BME280;51019;46.090;6.350;2023-03-03T00:55:38;96691.31;;;-3.06;100.00
64610;BME280;51019;46.090;6.350;2023-03-03T00:58:09;96685.50;;;-3.34;100.00
64610;BME280;51019;46.090;6.350;2023-03-03T01:00:36;96684.56;;;-3.56;100.00
64610;BME280;51019;46.090;6.350;2023-03-03T01:03:06;96688.44;;;-3.45;100.00
64610;BME280;51019;46.090;6.350;2023-03-03T01:05:34;96674.78;;;-3.45;100.00
64610;BME280;51019;46.090;6.350;2023-03-03T01:08:02;96679.34;;;-3.53;100.00
64610;BME280;51019;46.090;6.350;2023-03-03T01:10:32;96690.22;;;-3.47;100.00
64610;BME280;51019;46.090;6.350;2023-03-03T01:13:01;96691.88;;;-3.46;100.00
64610;BME280;51019;46.090;6.350;2023-03-03T01:15:34;96684.53;;;-3.55;100.00
64610;BME280;51019;46.090;6.350;2023-03-03T01:18:01;96690.91;;;-3.42;100.00
64610;BME280;51019;46.090;6.350;2023-03-03T01:20:29;96695.97;;;-3.40;100.00
64610;BME280;51019;46.090;6.350;2023-03-03T01:22:59;96687.41;;;-3.39;100.00
64610;BME280;51019;46.090;6.350;2023-03-03T01:25:26;96705.22;;;-3.36;100.00
64610;BME280;51019;46.090;6.350;2023-03-03T01:27:54;96699.47;;;-3.43;100.00
64610;BME280;51019;46.090;6.350;2023-03-03T01:30:23;96696.22;;;-3.48;100.00
64610;BME280;51019;46.090;6.350;2023-03-03T01:32:59;96702.50;;;-3.56;100.00
64610;BME280;51019;46.090;6.350;2023-03-03T01:35:31;96689.25;;;-3.68;100.00
64610;BME280;51019;46.090;6.350;2023-03-03T01:38:01;96700.00;;;-3.58;100.00
64610;BME280;51019;46.090;6.350;2023-03-03T01:40:31;96693.94;;;-3.55;100.00
64610;BME280;51019;46.090;6.350;2023-03-03T01:42:59;96692.06;;;-3.75;100.00
64610;BME280;51019;46.090;6.350;2023-03-03T01:45:28;96700.38;;;-3.69;100.00
64610;BME280;51019;46.090;6.350;2023-03-03T01:48:02;96687.19;;;-3.83;100.00
64610;BME280;51019;46.090;6.350;2023-03-03T01:50:36;96706.66;;;-3.77;100.00
64610;BME280;51019;46.090;6.350;2023-03-03T01:53:11;96701.44;;;-3.74;100.00
64610;BME280;51019;46.090;6.350;2023-03-03T01:55:41;96696.50;;;-3.55;100.00
64610;BME280;51019;46.090;6.350;2023-03-03T01:58:13;96673.66;;;-3.86;100.00
64610;BME280;51019;46.090;6.350;2023-03-03T02:00:45;96680.50;;;-3.87;100.00
64610;BME280;51019;46.090;6.350;2023-03-03T02:03:20;96701.44;;;-3.74;100.00
64610;BME280;51019;46.090;6.350;2023-03-03T02:05:54;96697.97;;;-3.73;100.00
64610;BME280;51019;46.090;6.350;2023-03-03T02:08:29;96692.69;;;-3.69;100.00
64610;BME280;51019;46.090;6.350;2023-03-03T02:11:00;96692.13;;;-3.77;100.00
64610;BME280;51019;46.090;6.350;2023-03-03T02:13:31;96690.34;;;-3.75;100.00
64610;BME280;51019;46.090;6.350;2023-03-03T02:15:59;96690.81;;;-3.88;100.00
64610;BME280;51019;46.090;6.350;2023-03-03T02:18:29;96675.44;;;-3.88;100.00
64610;BME280;51019;46.090;6.350;2023-03-03T02:20:59;96697.16;;;-4.00;100.00
64610;BME280;51019;46.090;6.350;2023-03-03T02:23:36;96686.94;;;-4.00;100.00
64610;BME280;51019;46.090;6.350;2023-03-03T02:26:09;96692.22;;;-4.06;100.00
64610;BME280;51019;46.090;6.350;2023-03-03T02:28:41;96689.69;;;-4.06;100.00
64610;BME280;51019;46.090;6.350;2023-03-03T02:31:11;96693.81;;;-4.02;100.00
64610;BME280;51019;46.090;6.350;2023-03-03T02:33:40;96695.72;;;-4.07;100.00
64610;BME280;51019;46.090;6.350;2023-03-03T02:36:11;96693.16;;;-4.07;100.00
64610;BME280;51019;46.090;6.350;2023-03-03T02:38:42;96693.25;;;-4.10;100.00
64610;BME280;51019;46.090;6.350;2023-03-03T02:41:20;96683.31;;;-4.19;100.00
64610;BME280;51019;46.090;6.350;2023-03-03T02:43:57;96694.09;;;-4.10;100.00
64610;BME280;51019;46.090;6.350;2023-03-03T02:46:28;96667.56;;;-4.33;100.00
64610;BME280;51019;46.090;6.350;2023-03-03T02:48:58;96691.03;;;-4.21;100.00
64610;BME280;51019;46.090;6.350;2023-03-03T02:51:26;96693.19;;;-4.35;100.00
64610;BME280;51019;46.090;6.350;2023-03-03T02:53:54;96697.22;;;-4.28;100.00
64610;BME280;51019;46.090;6.350;2023-03-03T02:56:23;96690.09;;;-4.18;100.00
64610;BME280;51019;46.090;6.350;2023-03-03T02:58:51;96701.41;;;-4.25;100.00
64610;BME280;51019;46.090;6.350;2023-03-03T03:01:18;96672.94;;;-4.41;100.00
64610;BME280;51019;46.090;6.350;2023-03-03T03:03:47;96686.41;;;-4.10;100.00
64610;BME280;51019;46.090;6.350;2023-03-03T03:06:14;96690.69;;;-4.10;100.00
64610;BME280;51019;46.090;6.350;2023-03-03T03:08:43;96691.16;;;-4.25;100.00
64610;BME280;51019;46.090;6.350;2023-03-03T03:11:11;96693.44;;;-4.16;100.00
64610;BME280;51019;46.090;6.350;2023-03-03T03:13:41;96699.38;;;-4.16;100.00
64610;BME280;51019;46.090;6.350;2023-03-03T03:16:08;96699.50;;;-4.19;100.00
64610;BME280;51019;46.090;6.350;2023-03-03T03:18:36;96689.25;;;-4.19;100.00
64610;BME280;51019;46.090;6.350;2023-03-03T03:21:06;96681.31;;;-4.38;100.00
64610;BME280;51019;46.090;6.350;2023-03-03T03:23:34;96704.97;;;-4.29;100.00
64610;BME280;51019;46.090;6.350;2023-03-03T03:26:03;96710.22;;;-4.34;100.00
64610;BME280;51019;46.090;6.350;2023-03-03T03:28:31;96712.28;;;-4.45;100.00
64610;BME280;51019;46.090;6.350;2023-03-03T03:31:01;96714.13;;;-4.50;100.00
64610;BME280;51019;46.090;6.350;2023-03-03T03:33:29;96708.03;;;-4.46;100.00
64610;BME280;51019;46.090;6.350;2023-03-03T03:35:57;96707.03;;;-4.41;100.00
64610;BME280;51019;46.090;6.350;2023-03-03T03:38:27;96687.13;;;-4.59;100.00
64610;BME280;51019;46.090;6.350;2023-03-03T03:40:56;96707.19;;;-4.47;100.00
64610;BME280;51019;46.090;6.350;2023-03-03T03:43:25;96704.00;;;-4.53;100.00
64610;BME280;51019;46.090;6.350;2023-03-03T03:45:53;96711.84;;;-4.59;100.00
64610;BME280;51019;46.090;6.350;2023-03-03T03:48:22;96696.78;;;-4.68;100.00
64610;BME280;51019;46.090;6.350;2023-03-03T03:50:50;96693.03;;;-4.57;100.00
64610;BME280;51019;46.090;6.350;2023-03-03T03:53:17;96678.81;;;-4.65;100.00
64610;BME280;51019;46.090;6.350;2023-03-03T03:55:45;96713.19;;;-4.48;100.00
64610;BME280;51019;46.090;6.350;2023-03-03T03:58:13;96712.06;;;-4.39;100.00
64610;BME280;51019;46.090;6.350;2023-03-03T04:00:42;96713.91;;;-4.43;100.00
64610;BME280;51019;46.090;6.350;2023-03-03T04:03:10;96701.16;;;-4.44;100.00
64610;BME280;51019;46.090;6.350;2023-03-03T04:05:40;96708.88;;;-4.46;100.00
64610;BME280;51019;46.090;6.350;2023-03-03T04:08:09;96697.06;;;-4.50;100.00
64610;BME280;51019;46.090;6.350;2023-03-03T04:10:37;96709.09;;;-4.52;100.00
64610;BME280;51019;46.090;6.350;2023-03-03T04:13:05;96705.03;;;-4.59;100.00
64610;BME280;51019;46.090;6.350;2023-03-03T04:15:33;96719.31;;;-4.52;100.00
64610;BME280;51019;46.090;6.350;2023-03-03T04:18:02;96714.31;;;-4.56;100.00
64610;BME280;51019;46.090;6.350;2023-03-03T04:20:30;96718.69;;;-4.60;100.00
64610;BME280;51019;46.090;6.350;2023-03-03T04:23:00;96687.84;;;-4.83;100.00
64610;BME280;51019;46.090;6.350;2023-03-03T04:25:27;96692.44;;;-4.94;100.00
64610;BME280;51019;46.090;6.350;2023-03-03T04:27:55;96713.38;;;-4.82;100.00
64610;BME280;51019;46.090;6.350;2023-03-03T04:30:22;96717.53;;;-4.78;100.00
64610;BME280;51019;46.090;6.350;2023-03-03T04:32:51;96722.72;;;-4.81;100.00
64610;BME280;51019;46.090;6.350;2023-03-03T04:35:18;96696.09;;;-5.01;100.00
64610;BME280;51019;46.090;6.350;2023-03-03T04:37:47;96725.16;;;-4.76;100.00
64610;BME280;51019;46.090;6.350;2023-03-03T04:40:16;96717.84;;;-4.88;100.00
64610;BME280;51019;46.090;6.350;2023-03-03T04:42:45;96724.84;;;-4.95;100.00
64610;BME280;51019;46.090;6.350;2023-03-03T04:45:13;96717.22;;;-4.96;100.00
64610;BME280;51019;46.090;6.350;2023-03-03T04:47:41;96723.09;;;-4.93;100.00
64610;BME280;51019;46.090;6.350;2023-03-03T04:50:10;96727.88;;;-4.82;100.00
64610;BME280;51019;46.090;6.350;2023-03-03T04:52:38;96731.47;;;-4.88;100.00
64610;BME280;51019;46.090;6.350;2023-03-03T04:55:07;96729.81;;;-4.89;100.00
64610;BME280;51019;46.090;6.350;2023-03-03T04:57:38;96716.25;;;-4.92;100.00
64610;BME280;51019;46.090;6.350;2023-03-03T05:00:06;96723.66;;;-4.83;100.00
64610;BME280;51019;46.090;6.350;2023-03-03T05:02:34;96719.59;;;-4.90;100.00
64610;BME280;51019;46.090;6.350;2023-03-03T05:05:02;96716.44;;;-4.98;100.00
64610;BME280;51019;46.090;6.350;2023-03-03T05:07:30;96729.84;;;-4.90;100.00
64610;BME280;51019;46.090;6.350;2023-03-03T05:09:58;96723.84;;;-4.89;100.00
64610;BME280;51019;46.090;6.350;2023-03-03T05:12:25;96734.72;;;-4.83;100.00
64610;BME280;51019;46.090;6.350;2023-03-03T05:14:57;96735.28;;;-4.73;100.00
64610;BME280;51019;46.090;6.350;2023-03-03T05:17:24;96730.88;;;-4.68;100.00
64610;BME280;51019;46.090;6.350;2023-03-03T05:19:52;96729.72;;;-4.58;100.00
64610;BME280;51019;46.090;6.350;2023-03-03T05:22:22;96731.25;;;-4.52;100.00
64610;BME280;51019;46.090;6.350;2023-03-03T05:24:51;96712.00;;;-4.64;100.00
64610;BME280;51019;46.090;6.350;2023-03-03T05:27:19;96728.75;;;-4.54;100.00
64610;BME280;51019;46.090;6.350;2023-03-03T05:29:47;96728.84;;;-4.57;100.00
64610;BME280;51019;46.090;6.350;2023-03-03T05:32:17;96737.38;;;-4.58;100.00
64610;BME280;51019;46.090;6.350;2023-03-03T05:34:44;96732.28;;;-4.58;100.00
64610;BME280;51019;46.090;6.350;2023-03-03T05:37:12;96722.84;;;-4.56;100.00
64610;BME280;51019;46.090;6.350;2023-03-03T05:39:40;96722.28;;;-4.65;100.00
64610;BME280;51019;46.090;6.350;2023-03-03T05:42:10;96728.91;;;-4.60;100.00
64610;BME280;51019;46.090;6.350;2023-03-03T05:44:38;96729.75;;;-4.59;100.00
64610;BME280;51019;46.090;6.350;2023-03-03T05:47:07;96732.50;;;-4.65;100.00
64610;BME280;51019;46.090;6.350;2023-03-03T05:49:36;96724.94;;;-4.68;100.00
64610;BME280;51019;46.090;6.350;2023-03-03T05:52:04;96733.06;;;-4.56;100.00
64610;BME280;51019;46.090;6.350;2023-03-03T05:54:31;96750.53;;;-4.41;100.00
64610;BME280;51019;46.090;6.350;2023-03-03T05:56:59;96715.59;;;-4.42;100.00
64610;BME280;51019;46.090;6.350;2023-03-03T05:59:27;96747.09;;;-4.13;100.00
64610;BME280;51019;46.090;6.350;2023-03-03T06:01:56;96728.59;;;-4.21;100.00
64610;BME280;51019;46.090;6.350;2023-03-03T06:04:23;96744.53;;;-4.13;100.00
64610;BME280;51019;46.090;6.350;2023-03-03T06:06:53;96745.59;;;-3.94;100.00
64610;BME280;51019;46.090;6.350;2023-03-03T06:09:22;96747.19;;;-3.90;100.00
64610;BME280;51019;46.090;6.350;2023-03-03T06:11:51;96753.72;;;-3.81;100.00
64610;BME280;51019;46.090;6.350;2023-03-03T06:14:19;96730.97;;;-3.90;100.00
64610;BME280;51019;46.090;6.350;2023-03-03T06:16:49;96741.66;;;-3.78;100.00
64610;BME280;51019;46.090;6.350;2023-03-03T06:19:17;96733.97;;;-3.78;100.00
64610;BME280;51019;46.090;6.350;2023-03-03T06:21:45;96746.81;;;-3.53;100.00
64610;BME280;51019;46.090;6.350;2023-03-03T06:24:20;96753.72;;;-3.55;100.00
64610;BME280;51019;46.090;6.350;2023-03-03T06:26:50;96748.59;;;-3.55;100.00
64610;BME280;51019;46.090;6.350;2023-03-03T06:29:17;96749.94;;;-3.45;100.00
64610;BME280;51019;46.090;6.350;2023-03-03T06:31:45;96757.25;;;-3.34;100.00
64610;BME280;51019;46.090;6.350;2023-03-03T06:34:13;96754.50;;;-3.28;100.00
64610;BME280;51019;46.090;6.350;2023-03-03T06:36:40;96758.50;;;-3.21;100.00
64610;BME280;51019;46.090;6.350;2023-03-03T06:39:08;96741.66;;;-3.05;100.00
64610;BME280;51019;46.090;6.350;2023-03-03T06:41:41;96753.34;;;-2.96;100.00
64610;BME280;51019;46.090;6.350;2023-03-03T06:44:09;96757.00;;;-2.80;100.00
64610;BME280;51019;46.090;6.350;2023-03-03T06:46:39;96748.03;;;-2.92;100.00
64610;BME280;51019;46.090;6.350;2023-03-03T06:49:06;96757.53;;;-2.94;100.00
64610;BME280;51019;46.090;6.350;2023-03-03T06:51:37;96755.34;;;-2.81;100.00
64610;BME280;51019;46.090;6.350;2023-03-03T06:54:09;96757.00;;;-2.80;100.00
64610;BME280;51019;46.090;6.350;2023-03-03T06:56:37;96760.31;;;-2.76;100.00
64610;BME280;51019;46.090;6.350;2023-03-03T06:59:10;96735.69;;;-2.82;100.00
64610;BME280;51019;46.090;6.350;2023-03-03T07:01:39;96772.41;;;-2.57;100.00
64610;BME280;51019;46.090;6.350;2023-03-03T07:04:19;96775.34;;;-2.44;100.00
64610;BME280;51019;46.090;6.350;2023-03-03T07:06:50;96774.44;;;-2.43;100.00
64610;BME280;51019;46.090;6.350;2023-03-03T07:09:21;96781.31;;;-2.43;100.00
64610;BME280;51019;46.090;6.350;2023-03-03T07:11:48;96772.38;;;-2.33;100.00
64610;BME280;51019;46.090;6.350;2023-03-03T07:14:20;96780.00;;;-2.32;100.00
64610;BME280;51019;46.090;6.350;2023-03-03T07:16:52;96784.16;;;-2.28;100.00
64610;BME280;51019;46.090;6.350;2023-03-03T07:19:29;96792.38;;;-2.20;100.00
64610;BME280;51019;46.090;6.350;2023-03-03T07:22:14;96788.25;;;-2.02;100.00
64610;BME280;51019;46.090;6.350;2023-03-03T07:24:48;96797.25;;;-2.13;100.00
64610;BME280;51019;46.090;6.350;2023-03-03T07:27:22;96798.94;;;-1.91;100.00
64610;BME280;51019;46.090;6.350;2023-03-03T07:30:16;96792.53;;;-2.02;100.00
64610;BME280;51019;46.090;6.350;2023-03-03T07:32:45;96807.78;;;-1.98;100.00
64610;BME280;51019;46.090;6.350;2023-03-03T07:41:03;96817.22;;;-1.98;100.00
64610;BME280;51019;46.090;6.350;2023-03-03T07:43:35;96816.22;;;-1.94;100.00
64610;BME280;51019;46.090;6.350;2023-03-03T07:46:25;96813.34;;;-1.87;100.00
64610;BME280;51019;46.090;6.350;2023-03-03T07:49:15;96820.50;;;-1.73;100.00
64610;BME280;51019;46.090;6.350;2023-03-03T07:51:46;96818.00;;;-1.74;100.00
64610;BME280;51019;46.090;6.350;2023-03-03T07:54:29;96824.88;;;-1.75;100.00
64610;BME280;51019;46.090;6.350;2023-03-03T07:57:11;96817.09;;;-1.73;100.00
64610;BME280;51019;46.090;6.350;2023-03-03T07:59:46;96822.66;;;-1.62;100.00
64610;BME280;51019;46.090;6.350;2023-03-03T08:02:32;96811.66;;;-1.66;100.00
64610;BME280;51019;46.090;6.350;2023-03-03T08:05:01;96809.31;;;-1.50;100.00
64610;BME280;51019;46.090;6.350;2023-03-03T08:07:38;96825.91;;;-1.37;100.00
64610;BME280;51019;46.090;6.350;2023-03-03T08:10:28;96823.00;;;-1.29;100.00
64610;BME280;51019;46.090;6.350;2023-03-03T08:13:11;96817.94;;;-1.31;100.00
64610;BME280;51019;46.090;6.350;2023-03-03T08:15:44;96831.00;;;-1.15;100.00
64610;BME280;51019;46.090;6.350;2023-03-03T08:18:22;96827.13;;;-1.05;100.00
64610;BME280;51019;46.090;6.350;2023-03-03T08:20:51;96817.53;;;-1.01;100.00
64610;BME280;51019;46.090;6.350;2023-03-03T08:23:20;96818.38;;;-1.01;100.00
64610;BME280;51019;46.090;6.350;2023-03-03T08:25:49;96816.03;;;-0.87;100.00
64610;BME280;51019;46.090;6.350;2023-03-03T08:28:17;96816.94;;;-0.88;100.00
64610;BME280;51019;46.090;6.350;2023-03-03T08:30:46;96812.03;;;-0.74;100.00
64610;BME280;51019;46.090;6.350;2023-03-03T08:33:18;96807.72;;;-0.73;100.00
64610;BME280;51019;46.090;6.350;2023-03-03T08:35:46;96816.66;;;-0.61;100.00
64610;BME280;51019;46.090;6.350;2023-03-03T08:38:16;96809.63;;;-0.58;100.00
64610;BME280;51019;46.090;6.350;2023-03-03T08:40:45;96807.91;;;-0.57;100.00
64610;BME280;51019;46.090;6.350;2023-03-03T08:43:12;96793.34;;;-0.58;100.00
64610;BME280;51019;46.090;6.350;2023-03-03T08:45:41;96787.50;;;-0.43;100.00
64610;BME280;51019;46.090;6.350;2023-03-03T08:48:11;96789.47;;;-0.48;100.00
64610;BME280;51019;46.090;6.350;2023-03-03T08:50:43;96801.56;;;-0.31;100.00
64610;BME280;51019;46.090;6.350;2023-03-03T08:53:12;96793.91;;;-0.33;100.00
64610;BME280;51019;46.090;6.350;2023-03-03T08:55:41;96781.19;;;-0.36;100.00
64610;BME280;51019;46.090;6.350;2023-03-03T08:58:08;96802.25;;;-0.09;100.00
64610;BME280;51019;46.090;6.350;2023-03-03T09:00:38;96800.06;;;0.00;100.00
64610;BME280;51019;46.090;6.350;2023-03-03T09:03:08;96809.13;;;0.09;100.00
64610;BME280;51019;46.090;6.350;2023-03-03T09:05:37;96807.13;;;0.33;100.00
64610;BME280;51019;46.090;6.350;2023-03-03T09:08:07;96800.84;;;0.39;100.00
64610;BME280;51019;46.090;6.350;2023-03-03T09:10:35;96800.44;;;0.29;100.00
64610;BME280;51019;46.090;6.350;2023-03-03T09:13:06;96793.09;;;0.21;100.00
64610;BME280;51019;46.090;6.350;2023-03-03T09:15:36;96784.84;;;0.32;100.00
64610;BME280;51019;46.090;6.350;2023-03-03T09:18:13;96798.81;;;0.62;100.00
64610;BME280;51019;46.090;6.350;2023-03-03T09:20:43;96801.69;;;0.73;100.00
64610;BME280;51019;46.090;6.350;2023-03-03T09:23:28;96810.94;;;0.60;100.00
64610;BME280;51019;46.090;6.350;2023-03-03T09:25:58;96814.50;;;0.92;100.00
64610;BME280;51019;46.090;6.350;2023-03-03T09:28:43;96800.31;;;1.01;100.00
64610;BME280;51019;46.090;6.350;2023-03-03T09:31:21;96810.59;;;1.18;100.00
64610;BME280;51019;46.090;6.350;2023-03-03T09:33:50;96775.63;;;1.13;100.00
64610;BME280;51019;46.090;6.350;2023-03-03T09:36:25;96808.09;;;1.50;100.00
64610;BME280;51019;46.090;6.350;2023-03-03T09:39:02;96807.03;;;1.69;100.00
64610;BME280;51019;46.090;6.350;2023-03-03T09:48:27;96812.31;;;1.83;100.00
64610;BME280;51019;46.090;6.350;2023-03-03T09:51:18;96818.00;;;1.90;100.00
64610;BME280;51019;46.090;6.350;2023-03-03T09:54:07;96818.16;;;1.87;100.00
64610;BME280;51019;46.090;6.350;2023-03-03T09:57:02;96804.31;;;1.88;100.00
64610;BME280;51019;46.090;6.350;2023-03-03T09:59:57;96802.44;;;1.59;100.00
64610;BME280;51019;46.090;6.350;2023-03-03T10:02:34;96824.34;;;1.52;100.00
64610;BME280;51019;46.090;6.350;2023-03-03T10:05:20;96817.56;;;1.82;100.00
64610;BME280;51019;46.090;6.350;2023-03-03T10:08:00;96816.97;;;2.08;100.00
64610;BME280;51019;46.090;6.350;2023-03-03T10:10:42;96816.97;;;1.93;100.00
64610;BME280;51019;46.090;6.350;2023-03-03T10:13:34;96786.47;;;1.99;100.00
64610;BME280;51019;46.090;6.350;2023-03-03T10:16:16;96809.38;;;2.37;100.00
64610;BME280;51019;46.090;6.350;2023-03-03T10:18:50;96805.81;;;1.76;100.00
64610;BME280;51019;46.090;6.350;2023-03-03T10:21:23;96807.91;;;2.01;100.00
64610;BME280;51019;46.090;6.350;2023-03-03T10:23:55;96812.22;;;2.16;100.00
64610;BME280;51019;46.090;6.350;2023-03-03T10:29:30;96811.22;;;2.35;100.00
64610;BME280;51019;46.090;6.350;2023-03-03T10:32:26;96810.50;;;2.01;100.00
64610;BME280;51019;46.090;6.350;2023-03-03T10:35:13;96805.66;;;2.11;100.00
64610;BME280;51019;46.090;6.350;2023-03-03T10:37:53;96811.44;;;2.46;100.00
64610;BME280;51019;46.090;6.350;2023-03-03T10:40:29;96809.41;;;2.51;100.00
64610;BME280;51019;46.090;6.350;2023-03-03T10:43:24;96811.38;;;2.47;100.00
64610;BME280;51019;46.090;6.350;2023-03-03T10:46:18;96807.94;;;2.47;100.00
64610;BME280;51019;46.090;6.350;2023-03-03T10:49:13;96825.59;;;2.70;100.00
64610;BME280;51019;46.090;6.350;2023-03-03T10:52:07;96814.13;;;2.74;100.00
64610;BME280;51019;46.090;6.350;2023-03-03T10:54:50;96812.03;;;2.95;100.00
64610;BME280;51019;46.090;6.350;2023-03-03T10:57:25;96798.63;;;2.88;100.00
64610;BME280;51019;46.090;6.350;2023-03-03T11:00:14;96805.22;;;3.08;100.00
64610;BME280;51019;46.090;6.350;2023-03-03T11:02:52;96802.31;;;3.14;100.00
64610;BME280;51019;46.090;6.350;2023-03-03T11:05:28;96809.78;;;3.19;100.00
64610;BME280;51019;46.090;6.350;2023-03-03T11:08:02;96805.59;;;3.16;100.00
64610;BME280;51019;46.090;6.350;2023-03-03T11:10:47;96817.50;;;3.35;100.00
64610;BME280;51019;46.090;6.350;2023-03-03T11:13:27;96818.22;;;3.37;100.00
64610;BME280;51019;46.090;6.350;2023-03-03T11:16:29;96818.41;;;3.48;100.00
64610;BME280;51019;46.090;6.350;2023-03-03T11:19:09;96820.91;;;3.35;100.00
64610;BME280;51019;46.090;6.350;2023-03-03T11:21:43;96819.63;;;3.56;100.00
64610;BME280;51019;46.090;6.350;2023-03-03T11:24:31;96809.53;;;3.52;100.00
64610;BME280;51019;46.090;6.350;2023-03-03T11:27:21;96818.31;;;3.63;100.00
64610;BME280;51019;46.090;6.350;2023-03-03T11:30:18;96811.75;;;3.72;100.00
64610;BME280;51019;46.090;6.350;2023-03-03T11:32:59;96801.47;;;3.56;100.00
64610;BME280;51019;46.090;6.350;2023-03-03T11:35:35;96811.19;;;3.81;100.00
64610;BME280;51019;46.090;6.350;2023-03-03T11:38:32;96806.84;;;3.82;100.00
64610;BME280;51019;46.090;6.350;2023-03-03T11:41:03;96810.06;;;3.85;100.00
64610;BME280;51019;46.090;6.350;2023-03-03T11:43:39;96814.22;;;3.74;100.00
64610;BME280;51019;46.090;6.350;2023-03-03T11:46:16;96813.50;;;3.57;100.00
64610;BME280;51019;46.090;6.350;2023-03-03T11:49:02;96805.25;;;3.65;100.00
64610;BME280;51019;46.090;6.350;2023-03-03T11:51:40;96799.16;;;3.52;100.00
64610;BME280;51019;46.090;6.350;2023-03-03T11:54:16;96794.63;;;3.55;100.00
64610;BME280;51019;46.090;6.350;2023-03-03T11:56:47;96803.50;;;3.65;100.00
64610;BME280;51019;46.090;6.350;2023-03-03T11:59:35;96801.75;;;3.66;100.00
64610;BME280;51019;46.090;6.350;2023-03-03T12:02:22;96799.16;;;3.66;100.00
64610;BME280;51019;46.090;6.350;2023-03-03T12:05:00;96792.59;;;3.60;100.00
64610;BME280;51019;46.090;6.350;2023-03-03T12:07:41;96712.53;;;3.27;100.00
64610;BME280;51019;46.090;6.350;2023-03-03T12:10:19;96769.28;;;3.46;100.00
64610;BME280;51019;46.090;6.350;2023-03-03T12:12:57;96792.88;;;3.70;100.00
64610;BME280;51019;46.090;6.350;2023-03-03T12:15:34;96789.22;;;3.73;100.00
64610;BME280;51019;46.090;6.350;2023-03-03T12:18:16;96788.34;;;3.45;100.00
64610;BME280;51019;46.090;6.350;2023-03-03T12:21:01;96772.88;;;3.29;100.00
64610;BME280;51019;46.090;6.350;2023-03-03T12:23:45;96760.56;;;3.33;100.00
64610;BME280;51019;46.090;6.350;2023-03-03T12:26:16;96764.81;;;3.20;100.00
64610;BME280;51019;46.090;6.350;2023-03-03T12:28:50;96777.22;;;3.43;100.00
64610;BME280;51019;46.090;6.350;2023-03-03T12:31:38;96778.59;;;3.77;100.00
64610;BME280;51019;46.090;6.350;2023-03-03T12:34:17;96772.72;;;3.88;100.00
64610;BME280;51019;46.090;6.350;2023-03-03T12:37:05;96783.75;;;3.91;100.00
64610;BME280;51019;46.090;6.350;2023-03-03T12:39:44;96778.09;;;3.85;100.00
64610;BME280;51019;46.090;6.350;2023-03-03T12:42:23;96782.19;;;3.89;100.00
64610;BME280;51019;46.090;6.350;2023-03-03T12:44:59;96778.09;;;3.99;100.00
64610;BME280;51019;46.090;6.350;2023-03-03T12:47:33;96746.47;;;3.80;100.00
64610;BME280;51019;46.090;6.350;2023-03-03T12:50:23;96775.13;;;4.05;100.00
64610;BME280;51019;46.090;6.350;2023-03-03T12:53:06;96745.84;;;4.03;100.00
64610;BME280;51019;46.090;6.350;2023-03-03T12:55:48;96778.94;;;4.26;100.00
64610;BME280;51019;46.090;6.350;2023-03-03T12:58:26;96764.41;;;4.24;100.00
64610;BME280;51019;46.090;6.350;2023-03-03T13:01:04;96768.34;;;4.29;100.00
64610;BME280;51019;46.090;6.350;2023-03-03T13:03:40;96760.28;;;4.34;100.00
64610;BME280;51019;46.090;6.350;2023-03-03T13:06:14;96757.63;;;4.48;100.00
64610;BME280;51019;46.090;6.350;2023-03-03T13:09:05;96756.00;;;4.60;100.00
64610;BME280;51019;46.090;6.350;2023-03-03T13:11:50;96696.44;;;4.31;100.00
64610;BME280;51019;46.090;6.350;2023-03-03T13:14:26;96756.50;;;4.65;100.00
64610;BME280;51019;46.090;6.350;2023-03-03T13:17:04;96759.34;;;4.74;100.00
64610;BME280;51019;46.090;6.350;2023-03-03T13:19:39;96758.41;;;4.75;100.00
64610;BME280;51019;46.090;6.350;2023-03-03T13:22:11;96745.50;;;4.49;100.00
64610;BME280;51019;46.090;6.350;2023-03-03T13:24:50;96728.72;;;4.27;100.00
64610;BME280;51019;46.090;6.350;2023-03-03T13:27:24;96657.13;;;3.98;100.00
64610;BME280;51019;46.090;6.350;2023-03-03T13:30:00;96687.69;;;4.20;100.00
64610;BME280;51019;46.090;6.350;2023-03-03T13:32:34;96756.94;;;4.59;100.00
64610;BME280;51019;46.090;6.350;2023-03-03T13:35:08;96757.75;;;4.59;100.00
64610;BME280;51019;46.090;6.350;2023-03-03T13:37:44;96743.50;;;4.40;100.00
64610;BME280;51019;46.090;6.350;2023-03-03T13:40:17;96761.19;;;4.60;100.00
64610;BME280;51019;46.090;6.350;2023-03-03T13:42:50;96763.25;;;4.55;100.00